Friday, January 19, 2018, 10:28 PM EST
Back to Local

KAQW, N Adams Harriman-and-west

Location: North Adams, MA, United States Lat: 42.7
Local Time: 10:28 PM EST ( 3:28 GMT) Lon: -73.167
Time Zone: US/Eastern Elev: 652 ft

Show me the last for .
Show Coded

Time T Td Feel RH Dir Speed Gust Alt SLP Vis Weather Sky Remarks
2018-01-19 21:52 19 17 - 91 - Calm - 29.87 29.90 6 BR CLR None
2018-01-19 20:52 18 16 - 91 - Calm - 29.89 29.92 5 BR CLR None
2018-01-19 19:52 21 17 - 84 - Calm - 29.91 29.95 7 CLR None
2018-01-19 18:52 23 18 18 80 200° 3 - 29.91 29.94 7 CLR 6-hr Min Temp (7pm): 23.0°F
6-hr Max Temp (7pm): 28.9°F
2018-01-19 17:52 28 20 23 71 290° 5 - 29.91 29.94 9 OVC032 None
2018-01-19 17:27 28 20 24 71 290° 3 - 29.91 - 8 OVC031 None
2018-01-19 16:52 29 20 - 68 - Calm - 29.90 29.93 8 OVC025 None
2018-01-19 15:52 29 19 22 66 280° 7 - 29.93 29.96 10 OVC026 None
2018-01-19 14:52 29 18 20 63 270° 10 - 29.92 29.94 10 OVC029 None
2018-01-19 14:23 29 18 20 63 280° 10 - 29.92 - 10 OVC029 None
2018-01-19 13:52 29 17 19 60 270° 12 - 29.92 29.95 10 BKN030 OVC039 None
2018-01-19 12:52 28 16 20 60 270° 8 - 29.93 29.95 10 OVC031 6-hr Min Temp (1pm): 21.0°F
6-hr Max Temp (1pm): 28.0°F
2018-01-19 11:52 28 15 22 57 300° 6 - 29.95 29.98 10 OVC034 None
2018-01-19 10:52 27 15 19 60 270° 8 - 29.98 30.01 10 OVC035 None
2018-01-19 09:52 25 15 18 65 290° 6 - 29.98 30.01 10 OVC038 None
2018-01-19 08:52 22 13 16 67 270° 5 - 29.98 30.01 9 OVC039 None
2018-01-19 07:52 21 13 11 70 280° 8 - 29.97 30.00 10 OVC039 None
2018-01-19 06:52 22 12 13 65 290° 7 - 29.96 29.99 10 OVC038 6-hr Min Temp (7am): 21.0°F
6-hr Max Temp (7am): 23.0°F
2018-01-19 05:52 21 13 15 70 290° 5 - 29.96 29.99 10 OVC039 None
2018-01-19 04:52 22 13 13 67 330° 7 - 29.95 29.98 10 OVC039 None
2018-01-19 03:52 22 14 13 71 330° 7 - 29.94 29.98 10 SCT026 OVC036 None
2018-01-19 02:52 22 16 7 77 280° 9 18 29.95 29.98 10 OVC017 None
2018-01-19 01:52 21 15 11 77 290° 9 - 29.94 29.97 9 OVC017 None
2018-01-19 00:52 21 15 9 77 260° 13 - 29.95 29.99 9 OVC018 6-hr Min Temp (1am): 19.9°F
6-hr Max Temp (1am): 21.0°F
2018-01-18 23:52 21 14 12 73 290° 7 - 29.97 30.01 10 OVC019 24-hr Min Temp (12am): 5.0°F
24-hr Max Temp (12am): 23.0°F
2018-01-18 23:33 20 14 12 77 280° 6 - 29.97 - 10 BKN022 OVC031 None
2018-01-18 22:52 20 13 10 73 270° 8 - 29.98 30.01 10 OVC034 None

Support USWX by starting your Amazon purchase here.